sensor_id;sensor_type;location;lat;lon;timestamp;pressure;altitude;pressure_sealevel;temperature;humidity
58739;BME280;44512;53.046;18.604;2022-11-09T00:04:00;101439.16;;;11.71;64.57
58739;BME280;44512;53.046;18.604;2022-11-09T00:14:27;101437.84;;;11.67;64.63
58739;BME280;44512;53.046;18.604;2022-11-09T00:24:55;101451.97;;;11.62;64.67
58739;BME280;44512;53.046;18.604;2022-11-09T00:35:24;101439.19;;;11.56;64.60
58739;BME280;44512;53.046;18.604;2022-11-09T00:45:52;101439.94;;;11.50;64.57
58739;BME280;44512;53.046;18.604;2022-11-09T00:56:21;101446.12;;;11.44;64.53
58739;BME280;44512;53.046;18.604;2022-11-09T01:06:49;101449.40;;;11.39;64.51
58739;BME280;44512;53.046;18.604;2022-11-09T01:17:18;101439.30;;;11.33;64.44
58739;BME280;44512;53.046;18.604;2022-11-09T01:27:46;101436.68;;;11.25;64.44
58739;BME280;44512;53.046;18.604;2022-11-09T01:38:14;101432.02;;;11.19;64.55
58739;BME280;44512;53.046;18.604;2022-11-09T01:59:15;101415.20;;;11.09;64.75
58739;BME280;44512;53.046;18.604;2022-11-09T02:09:46;101414.73;;;11.05;64.85
58739;BME280;44512;53.046;18.604;2022-11-09T02:20:13;101416.15;;;11.01;64.90
58739;BME280;44512;53.046;18.604;2022-11-09T02:30:37;101405.88;;;10.97;64.92
58739;BME280;44512;53.046;18.604;2022-11-09T02:41:06;101394.75;;;10.91;64.89
58739;BME280;44512;53.046;18.604;2022-11-09T02:51:33;101398.85;;;10.87;64.94
58739;BME280;44512;53.046;18.604;2022-11-09T03:02:02;101404.83;;;10.83;64.96
58739;BME280;44512;53.046;18.604;2022-11-09T03:12:30;101398.93;;;10.79;65.03
58739;BME280;44512;53.046;18.604;2022-11-09T03:22:59;101404.73;;;10.76;65.12
58739;BME280;44512;53.046;18.604;2022-11-09T03:33:27;101380.09;;;10.71;65.23
58739;BME280;44512;53.046;18.604;2022-11-09T03:43:55;101377.44;;;10.63;65.44
58739;BME280;44512;53.046;18.604;2022-11-09T03:54:24;101383.61;;;10.57;65.64
58739;BME280;44512;53.046;18.604;2022-11-09T04:04:52;101384.08;;;10.60;65.69
58739;BME280;44512;53.046;18.604;2022-11-09T04:15:21;101381.19;;;10.62;65.79
58739;BME280;44512;53.046;18.604;2022-11-09T04:25:49;101367.29;;;10.65;65.86
58739;BME280;44512;53.046;18.604;2022-11-09T04:36:18;101384.17;;;10.67;65.89
58739;BME280;44512;53.046;18.604;2022-11-09T04:46:46;101367.93;;;10.67;65.88
58739;BME280;44512;53.046;18.604;2022-11-09T04:57:14;101363.16;;;10.69;65.89
58739;BME280;44512;53.046;18.604;2022-11-09T05:07:43;101358.42;;;10.71;65.85
58739;BME280;44512;53.046;18.604;2022-11-09T05:18:11;101362.80;;;10.72;65.87
58739;BME280;44512;53.046;18.604;2022-11-09T05:28:40;101361.77;;;10.73;65.86
58739;BME280;44512;53.046;18.604;2022-11-09T05:39:08;101373.28;;;10.75;65.81
58739;BME280;44512;53.046;18.604;2022-11-09T05:49:36;101351.77;;;10.74;65.73
58739;BME280;44512;53.046;18.604;2022-11-09T06:00:09;101376.70;;;10.69;65.74
58739;BME280;44512;53.046;18.604;2022-11-09T06:10:34;101375.87;;;10.68;65.77
58739;BME280;44512;53.046;18.604;2022-11-09T06:21:04;101370.44;;;10.68;65.84
58739;BME280;44512;53.046;18.604;2022-11-09T06:31:30;101386.24;;;10.65;65.83
58739;BME280;44512;53.046;18.604;2022-11-09T06:41:59;101375.77;;;10.62;65.90
58739;BME280;44512;53.046;18.604;2022-11-09T06:52:27;101369.71;;;10.60;66.01
58739;BME280;44512;53.046;18.604;2022-11-09T07:02:55;101365.30;;;10.59;66.20
58739;BME280;44512;53.046;18.604;2022-11-09T07:13:24;101368.01;;;10.59;66.38
58739;BME280;44512;53.046;18.604;2022-11-09T07:23:52;101374.09;;;10.61;66.55
58739;BME280;44512;53.046;18.604;2022-11-09T07:34:21;101379.12;;;10.64;66.70
58739;BME280;44512;53.046;18.604;2022-11-09T07:44:49;101380.83;;;10.65;66.92
58739;BME280;44512;53.046;18.604;2022-11-09T07:55:18;101387.53;;;10.69;67.13
58739;BME280;44512;53.046;18.604;2022-11-09T08:05:47;101380.53;;;10.75;67.38
58739;BME280;44512;53.046;18.604;2022-11-09T08:16:15;101404.18;;;10.81;67.62
58739;BME280;44512;53.046;18.604;2022-11-09T08:26:43;101384.65;;;10.85;67.75
58739;BME280;44512;53.046;18.604;2022-11-09T08:37:11;101384.57;;;10.93;67.82
58739;BME280;44512;53.046;18.604;2022-11-09T08:47:40;101380.55;;;11.04;67.81
58739;BME280;44512;53.046;18.604;2022-11-09T08:58:08;101376.91;;;11.12;67.76
58739;BME280;44512;53.046;18.604;2022-11-09T09:08:36;101372.05;;;11.22;67.65
58739;BME280;44512;53.046;18.604;2022-11-09T09:19:05;101388.85;;;11.32;67.59
58739;BME280;44512;53.046;18.604;2022-11-09T09:29:34;101388.93;;;11.39;67.52
58739;BME280;44512;53.046;18.604;2022-11-09T09:40:02;101384.25;;;11.47;67.43
58739;BME280;44512;53.046;18.604;2022-11-09T10:01:06;101394.20;;;11.62;66.99
58739;BME280;44512;53.046;18.604;2022-11-09T10:22:05;101388.52;;;11.78;66.98
58739;BME280;44512;53.046;18.604;2022-11-09T10:32:30;101379.95;;;11.89;66.92
58739;BME280;44512;53.046;18.604;2022-11-09T10:42:57;101388.20;;;12.03;66.12
58739;BME280;44512;53.046;18.604;2022-11-09T10:53:25;101394.80;;;12.15;66.02
58739;BME280;44512;53.046;18.604;2022-11-09T11:03:54;101390.89;;;12.24;65.81
58739;BME280;44512;53.046;18.604;2022-11-09T11:45:53;101388.85;;;12.54;65.18
58739;BME280;44512;53.046;18.604;2022-11-09T11:56:25;101401.47;;;12.62;65.28
58739;BME280;44512;53.046;18.604;2022-11-09T12:06:47;101397.95;;;12.68;65.25
58739;BME280;44512;53.046;18.604;2022-11-09T12:48:34;101398.20;;;12.73;64.24
58739;BME280;44512;53.046;18.604;2022-11-09T13:09:30;101403.88;;;12.78;64.52
58739;BME280;44512;53.046;18.604;2022-11-09T13:19:58;101385.11;;;12.83;64.60
58739;BME280;44512;53.046;18.604;2022-11-09T13:30:38;101395.38;;;12.88;64.67
58739;BME280;44512;53.046;18.604;2022-11-09T13:40:56;101389.52;;;12.91;64.69
58739;BME280;44512;53.046;18.604;2022-11-09T14:01:53;101397.32;;;13.00;64.78
58739;BME280;44512;53.046;18.604;2022-11-09T14:22:48;101395.88;;;13.04;64.91
58739;BME280;44512;53.046;18.604;2022-11-09T14:33:26;101410.94;;;13.07;64.98
58739;BME280;44512;53.046;18.604;2022-11-09T14:43:47;101414.70;;;13.06;65.17
58739;BME280;44512;53.046;18.604;2022-11-09T14:54:16;101412.65;;;13.08;65.54
58739;BME280;44512;53.046;18.604;2022-11-09T15:15:19;101424.34;;;13.09;66.14
58739;BME280;44512;53.046;18.604;2022-11-09T15:46:45;101434.80;;;13.12;67.48
58739;BME280;44512;53.046;18.604;2022-11-09T15:57:04;101448.84;;;13.15;67.69
58739;BME280;44512;53.046;18.604;2022-11-09T16:07:32;101444.01;;;13.11;67.87
58739;BME280;44512;53.046;18.604;2022-11-09T16:18:01;101426.27;;;13.15;67.92
58739;BME280;44512;53.046;18.604;2022-11-09T16:28:29;101424.18;;;13.17;67.88
58739;BME280;44512;53.046;18.604;2022-11-09T16:39:03;101438.43;;;13.19;67.86
58739;BME280;44512;53.046;18.604;2022-11-09T16:54:40;101432.33;;;13.17;67.79
58739;BME280;44512;53.046;18.604;2022-11-09T17:05:08;101426.71;;;13.18;67.66
58739;BME280;44512;53.046;18.604;2022-11-09T17:15:43;101438.43;;;13.19;67.54
58739;BME280;44512;53.046;18.604;2022-11-09T17:26:06;101452.02;;;13.19;67.56
58739;BME280;44512;53.046;18.604;2022-11-09T17:36:33;101463.91;;;13.18;67.57
58739;BME280;44512;53.046;18.604;2022-11-09T17:47:02;101453.45;;;13.15;67.53
58739;BME280;44512;53.046;18.604;2022-11-09T17:57:31;101439.86;;;13.15;67.45
58739;BME280;44512;53.046;18.604;2022-11-09T18:07:59;101448.22;;;13.13;67.25
58739;BME280;44512;53.046;18.604;2022-11-09T18:18:27;101437.94;;;13.09;67.13
58739;BME280;44512;53.046;18.604;2022-11-09T18:28:56;101435.23;;;13.09;67.03
58739;BME280;44512;53.046;18.604;2022-11-09T18:39:24;101446.09;;;13.09;66.87
58739;BME280;44512;53.046;18.604;2022-11-09T18:49:52;101444.38;;;13.08;66.63
58739;BME280;44512;53.046;18.604;2022-11-09T19:00:21;101436.65;;;13.04;66.46
58739;BME280;44512;53.046;18.604;2022-11-09T19:10:49;101459.82;;;13.00;66.30
58739;BME280;44512;53.046;18.604;2022-11-09T19:21:31;101461.26;;;12.96;66.16
58739;BME280;44512;53.046;18.604;2022-11-09T19:31:46;101459.34;;;12.90;66.11
58739;BME280;44512;53.046;18.604;2022-11-09T19:42:15;101466.20;;;12.86;66.10
58739;BME280;44512;53.046;18.604;2022-11-09T19:52:43;101473.08;;;12.82;66.12
58739;BME280;44512;53.046;18.604;2022-11-09T20:03:11;101477.23;;;12.78;66.17
58739;BME280;44512;53.046;18.604;2022-11-09T20:13:40;101492.86;;;12.76;66.21
58739;BME280;44512;53.046;18.604;2022-11-09T20:24:08;101495.99;;;12.73;66.22
58739;BME280;44512;53.046;18.604;2022-11-09T20:34:37;101495.33;;;12.71;66.20
58739;BME280;44512;53.046;18.604;2022-11-09T20:45:05;101488.63;;;12.67;66.11
58739;BME280;44512;53.046;18.604;2022-11-09T20:55:38;101481.48;;;12.66;66.05
58739;BME280;44512;53.046;18.604;2022-11-09T21:06:04;101485.66;;;12.62;65.92
58739;BME280;44512;53.046;18.604;2022-11-09T21:16:31;101490.11;;;12.48;65.77
58739;BME280;44512;53.046;18.604;2022-11-09T21:26:59;101498.05;;;12.28;66.00
58739;BME280;44512;53.046;18.604;2022-11-09T21:37:27;101490.11;;;12.27;66.16
58739;BME280;44512;53.046;18.604;2022-11-09T21:47:55;101488.88;;;12.29;66.13
58739;BME280;44512;53.046;18.604;2022-11-09T21:58:23;101488.23;;;12.27;66.00
58739;BME280;44512;53.046;18.604;2022-11-09T22:08:55;101496.32;;;12.20;66.03
58739;BME280;44512;53.046;18.604;2022-11-09T22:19:21;101492.94;;;12.18;66.05
58739;BME280;44512;53.046;18.604;2022-11-09T22:29:49;101505.88;;;12.16;66.01
58739;BME280;44512;53.046;18.604;2022-11-09T22:40:17;101498.94;;;12.14;65.81
58739;BME280;44512;53.046;18.604;2022-11-09T22:50:46;101504.09;;;12.09;65.83
58739;BME280;44512;53.046;18.604;2022-11-09T23:01:16;101513.68;;;12.05;65.78
58739;BME280;44512;53.046;18.604;2022-11-09T23:11:43;101519.47;;;12.02;65.83
58739;BME280;44512;53.046;18.604;2022-11-09T23:22:11;101519.77;;;11.92;65.90
58739;BME280;44512;53.046;18.604;2022-11-09T23:32:40;101514.74;;;11.89;66.01
58739;BME280;44512;53.046;18.604;2022-11-09T23:43:10;101537.34;;;11.81;66.13
58739;BME280;44512;53.046;18.604;2022-11-09T23:53:37;101540.14;;;11.73;66.38
